sensor_id;sensor_type;location;lat;lon;timestamp;pressure;altitude;pressure_sealevel;temperature;humidity
55079;BME280;55187;49.496;6.010;2022-10-31T00:00:27;97894.94;;;8.36;100.00
55079;BME280;55187;49.496;6.010;2022-10-31T00:02:53;97902.34;;;8.32;100.00
55079;BME280;55187;49.496;6.010;2022-10-31T00:05:19;97893.63;;;8.32;100.00
55079;BME280;55187;49.496;6.010;2022-10-31T00:07:45;97895.91;;;8.35;100.00
55079;BME280;55187;49.496;6.010;2022-10-31T00:10:12;97906.50;;;8.43;100.00
55079;BME280;55187;49.496;6.010;2022-10-31T00:12:38;97910.16;;;8.42;100.00
55079;BME280;55187;49.496;6.010;2022-10-31T00:15:05;97903.03;;;8.67;100.00
55079;BME280;55187;49.496;6.010;2022-10-31T00:17:35;97910.94;;;8.67;100.00
55079;BME280;55187;49.496;6.010;2022-10-31T00:20:02;97918.03;;;8.67;100.00
55079;BME280;55187;49.496;6.010;2022-10-31T00:22:29;97910.91;;;8.92;100.00
55079;BME280;55187;49.496;6.010;2022-10-31T00:24:55;97910.75;;;8.85;100.00
55079;BME280;55187;49.496;6.010;2022-10-31T00:27:21;97910.28;;;8.81;100.00
55079;BME280;55187;49.496;6.010;2022-10-31T00:29:48;97906.81;;;8.73;100.00
55079;BME280;55187;49.496;6.010;2022-10-31T00:32:14;97911.59;;;8.69;100.00
55079;BME280;55187;49.496;6.010;2022-10-31T00:34:40;97919.50;;;8.69;100.00
55079;BME280;55187;49.496;6.010;2022-10-31T00:37:07;97919.16;;;8.80;100.00
55079;BME280;55187;49.496;6.010;2022-10-31T00:39:35;97915.88;;;8.78;100.00
55079;BME280;55187;49.496;6.010;2022-10-31T00:42:01;97916.38;;;8.82;100.00
55079;BME280;55187;49.496;6.010;2022-10-31T00:44:28;97917.84;;;8.76;100.00
55079;BME280;55187;49.496;6.010;2022-10-31T00:46:54;97920.00;;;8.73;100.00
55079;BME280;55187;49.496;6.010;2022-10-31T00:49:21;97909.31;;;8.66;100.00
55079;BME280;55187;49.496;6.010;2022-10-31T00:51:48;97915.25;;;8.68;100.00
55079;BME280;55187;49.496;6.010;2022-10-31T00:54:14;97912.09;;;8.73;100.00
55079;BME280;55187;49.496;6.010;2022-10-31T00:56:40;97914.38;;;8.76;100.00
55079;BME280;55187;49.496;6.010;2022-10-31T00:59:08;97911.44;;;8.63;100.00
55079;BME280;55187;49.496;6.010;2022-10-31T01:01:35;97912.59;;;8.44;100.00
55079;BME280;55187;49.496;6.010;2022-10-31T01:04:01;97914.56;;;8.42;100.00
55079;BME280;55187;49.496;6.010;2022-10-31T01:06:28;97902.25;;;8.42;100.00
55079;BME280;55187;49.496;6.010;2022-10-31T01:08:56;97909.47;;;8.48;100.00
55079;BME280;55187;49.496;6.010;2022-10-31T01:11:23;97900.59;;;8.49;100.00
55079;BME280;55187;49.496;6.010;2022-10-31T01:13:52;97890.84;;;8.50;100.00
55079;BME280;55187;49.496;6.010;2022-10-31T01:16:22;97898.09;;;8.48;100.00
55079;BME280;55187;49.496;6.010;2022-10-31T01:18:50;97895.97;;;8.51;100.00
55079;BME280;55187;49.496;6.010;2022-10-31T01:21:20;97892.97;;;8.63;100.00
55079;BME280;55187;49.496;6.010;2022-10-31T01:23:49;97889.81;;;8.75;100.00
55079;BME280;55187;49.496;6.010;2022-10-31T01:26:18;97886.69;;;8.72;100.00
55079;BME280;55187;49.496;6.010;2022-10-31T01:28:57;97891.00;;;8.73;100.00
55079;BME280;55187;49.496;6.010;2022-10-31T01:31:26;97892.63;;;8.82;100.00
55079;BME280;55187;49.496;6.010;2022-10-31T01:33:54;97894.44;;;8.73;100.00
55079;BME280;55187;49.496;6.010;2022-10-31T01:36:27;97882.09;;;8.57;100.00
55079;BME280;55187;49.496;6.010;2022-10-31T01:38:57;97891.81;;;8.49;100.00
55079;BME280;55187;49.496;6.010;2022-10-31T01:41:27;97878.16;;;8.45;100.00
55079;BME280;55187;49.496;6.010;2022-10-31T01:43:57;97879.78;;;8.38;100.00
55079;BME280;55187;49.496;6.010;2022-10-31T01:46:27;97882.59;;;8.20;100.00
55079;BME280;55187;49.496;6.010;2022-10-31T01:48:59;97886.84;;;8.05;100.00
55079;BME280;55187;49.496;6.010;2022-10-31T01:51:29;97872.53;;;7.99;100.00
55079;BME280;55187;49.496;6.010;2022-10-31T01:54:01;97886.53;;;7.91;100.00
55079;BME280;55187;49.496;6.010;2022-10-31T01:56:30;97889.47;;;7.88;100.00
55079;BME280;55187;49.496;6.010;2022-10-31T01:58:59;97893.09;;;7.87;100.00
55079;BME280;55187;49.496;6.010;2022-10-31T02:01:27;97885.19;;;7.87;100.00
55079;BME280;55187;49.496;6.010;2022-10-31T02:03:55;97881.75;;;7.95;100.00
55079;BME280;55187;49.496;6.010;2022-10-31T02:06:33;97874.31;;;7.90;100.00
55079;BME280;55187;49.496;6.010;2022-10-31T02:09:05;97875.31;;;7.89;100.00
55079;BME280;55187;49.496;6.010;2022-10-31T02:11:32;97881.56;;;7.88;100.00
55079;BME280;55187;49.496;6.010;2022-10-31T02:14:01;97874.16;;;7.84;100.00
55079;BME280;55187;49.496;6.010;2022-10-31T02:16:28;97875.16;;;7.83;100.00
55079;BME280;55187;49.496;6.010;2022-10-31T02:18:55;97869.69;;;7.84;100.00
55079;BME280;55187;49.496;6.010;2022-10-31T02:21:32;97858.00;;;7.78;100.00
55079;BME280;55187;49.496;6.010;2022-10-31T02:24:29;97856.84;;;7.81;100.00
55079;BME280;55187;49.496;6.010;2022-10-31T02:27:20;97853.56;;;7.79;100.00
55079;BME280;55187;49.496;6.010;2022-10-31T02:35:52;97845.50;;;7.81;100.00
55079;BME280;55187;49.496;6.010;2022-10-31T02:38:27;97840.53;;;7.77;100.00
55079;BME280;55187;49.496;6.010;2022-10-31T02:44:08;97836.44;;;7.83;100.00
55079;BME280;55187;49.496;6.010;2022-10-31T02:46:52;97835.81;;;7.89;100.00
55079;BME280;55187;49.496;6.010;2022-10-31T02:49:37;97834.97;;;8.05;100.00
55079;BME280;55187;49.496;6.010;2022-10-31T02:52:18;97827.38;;;8.02;100.00
55079;BME280;55187;49.496;6.010;2022-10-31T02:54:47;97823.94;;;8.02;100.00
55079;BME280;55187;49.496;6.010;2022-10-31T02:57:16;97821.16;;;8.03;100.00
55079;BME280;55187;49.496;6.010;2022-10-31T02:59:48;97816.53;;;8.05;100.00
55079;BME280;55187;49.496;6.010;2022-10-31T03:08:11;97823.75;;;8.11;100.00
55079;BME280;55187;49.496;6.010;2022-10-31T03:13:34;97813.91;;;8.05;100.00
55079;BME280;55187;49.496;6.010;2022-10-31T03:16:10;97822.44;;;8.07;100.00
55079;BME280;55187;49.496;6.010;2022-10-31T03:18:45;97819.31;;;8.12;100.00
55079;BME280;55187;49.496;6.010;2022-10-31T03:21:22;97826.59;;;8.10;100.00
55079;BME280;55187;49.496;6.010;2022-10-31T03:23:53;97817.81;;;8.09;100.00
55079;BME280;55187;49.496;6.010;2022-10-31T03:26:21;97822.13;;;8.10;100.00
55079;BME280;55187;49.496;6.010;2022-10-31T03:29:00;97813.06;;;8.05;100.00
55079;BME280;55187;49.496;6.010;2022-10-31T03:31:45;97818.00;;;7.99;100.00
55079;BME280;55187;49.496;6.010;2022-10-31T03:34:16;97807.47;;;7.91;100.00
55079;BME280;55187;49.496;6.010;2022-10-31T03:36:46;97819.00;;;7.90;100.00
55079;BME280;55187;49.496;6.010;2022-10-31T03:39:16;97807.63;;;7.98;100.00
55079;BME280;55187;49.496;6.010;2022-10-31T03:41:52;97815.88;;;7.87;100.00
55079;BME280;55187;49.496;6.010;2022-10-31T03:44:22;97810.75;;;7.77;100.00
55079;BME280;55187;49.496;6.010;2022-10-31T03:46:57;97812.41;;;7.78;100.00
55079;BME280;55187;49.496;6.010;2022-10-31T03:49:25;97814.03;;;7.79;100.00
55079;BME280;55187;49.496;6.010;2022-10-31T03:54:46;97809.75;;;7.86;100.00
55079;BME280;55187;49.496;6.010;2022-10-31T03:57:31;97808.44;;;7.82;100.00
55079;BME280;55187;49.496;6.010;2022-10-31T04:00:06;97812.38;;;7.86;100.00
55079;BME280;55187;49.496;6.010;2022-10-31T04:02:55;97805.34;;;7.87;100.00
55079;BME280;55187;49.496;6.010;2022-10-31T04:05:28;97808.44;;;7.82;100.00
55079;BME280;55187;49.496;6.010;2022-10-31T04:08:02;97793.13;;;7.77;100.00
55079;BME280;55187;49.496;6.010;2022-10-31T04:10:32;97798.72;;;7.74;100.00
55079;BME280;55187;49.496;6.010;2022-10-31T04:13:04;97802.34;;;7.65;100.00
55079;BME280;55187;49.496;6.010;2022-10-31T04:15:41;97795.09;;;7.67;100.00
55079;BME280;55187;49.496;6.010;2022-10-31T04:18:09;97800.88;;;7.71;100.00
55079;BME280;55187;49.496;6.010;2022-10-31T04:20:39;97797.09;;;7.73;100.00
55079;BME280;55187;49.496;6.010;2022-10-31T04:23:22;97793.44;;;7.74;100.00
55079;BME280;55187;49.496;6.010;2022-10-31T04:25:50;97790.97;;;7.73;100.00
55079;BME280;55187;49.496;6.010;2022-10-31T04:28:18;97789.69;;;7.69;100.00
55079;BME280;55187;49.496;6.010;2022-10-31T04:30:45;97791.31;;;7.70;100.00
55079;BME280;55187;49.496;6.010;2022-10-31T04:33:11;97794.28;;;7.67;100.00
55079;BME280;55187;49.496;6.010;2022-10-31T04:35:38;97795.25;;;7.66;100.00
55079;BME280;55187;49.496;6.010;2022-10-31T04:38:05;97795.09;;;7.67;100.00
55079;BME280;55187;49.496;6.010;2022-10-31T04:40:32;97789.81;;;7.67;100.00
55079;BME280;55187;49.496;6.010;2022-10-31T04:43:18;97794.78;;;7.78;100.00
55079;BME280;55187;49.496;6.010;2022-10-31T04:45:45;97792.00;;;7.80;100.00
55079;BME280;55187;49.496;6.010;2022-10-31T04:48:13;97788.84;;;7.93;100.00
55079;BME280;55187;49.496;6.010;2022-10-31T04:50:42;97787.53;;;8.05;100.00
55079;BME280;55187;49.496;6.010;2022-10-31T04:53:08;97791.94;;;8.29;100.00
55079;BME280;55187;49.496;6.010;2022-10-31T04:55:44;97792.44;;;8.41;100.00
55079;BME280;55187;49.496;6.010;2022-10-31T04:58:18;97784.19;;;8.44;100.00
55079;BME280;55187;49.496;6.010;2022-10-31T05:00:44;97781.41;;;8.37;100.00
55079;BME280;55187;49.496;6.010;2022-10-31T05:03:14;97775.97;;;8.31;100.00
55079;BME280;55187;49.496;6.010;2022-10-31T05:05:41;97773.00;;;8.26;100.00
55079;BME280;55187;49.496;6.010;2022-10-31T05:08:08;97769.88;;;8.22;100.00
55079;BME280;55187;49.496;6.010;2022-10-31T05:10:35;97765.28;;;8.16;100.00
55079;BME280;55187;49.496;6.010;2022-10-31T05:13:03;97762.97;;;8.05;100.00
55079;BME280;55187;49.496;6.010;2022-10-31T05:15:51;97760.19;;;8.06;100.00
55079;BME280;55187;49.496;6.010;2022-10-31T05:18:37;97758.69;;;7.95;100.00
55079;BME280;55187;49.496;6.010;2022-10-31T05:21:08;97760.53;;;7.95;100.00
55079;BME280;55187;49.496;6.010;2022-10-31T05:23:40;97758.88;;;7.86;100.00
55079;BME280;55187;49.496;6.010;2022-10-31T05:26:07;97752.78;;;7.77;100.00
55079;BME280;55187;49.496;6.010;2022-10-31T05:28:37;97760.19;;;7.82;100.00
55079;BME280;55187;49.496;6.010;2022-10-31T05:31:03;97744.56;;;7.72;100.00
55079;BME280;55187;49.496;6.010;2022-10-31T05:33:31;97743.75;;;7.71;100.00
55079;BME280;55187;49.496;6.010;2022-10-31T05:36:09;97751.63;;;7.63;100.00
55079;BME280;55187;49.496;6.010;2022-10-31T05:38:41;97749.00;;;7.55;100.00
55079;BME280;55187;49.496;6.010;2022-10-31T05:41:12;97748.50;;;7.68;100.00
55079;BME280;55187;49.496;6.010;2022-10-31T05:43:45;97748.31;;;7.61;100.00
55079;BME280;55187;49.496;6.010;2022-10-31T05:46:13;97743.06;;;7.61;100.00
55079;BME280;55187;49.496;6.010;2022-10-31T05:48:42;97754.28;;;7.55;100.00
55079;BME280;55187;49.496;6.010;2022-10-31T05:51:28;97749.13;;;7.45;100.00
55079;BME280;55187;49.496;6.010;2022-10-31T05:53:55;97744.22;;;7.50;100.00
55079;BME280;55187;49.496;6.010;2022-10-31T05:56:22;97749.47;;;7.42;100.00
55079;BME280;55187;49.496;6.010;2022-10-31T05:58:49;97742.88;;;7.30;100.00
55079;BME280;55187;49.496;6.010;2022-10-31T06:01:15;97742.03;;;7.21;100.00
55079;BME280;55187;49.496;6.010;2022-10-31T06:03:44;97741.88;;;7.14;100.00
55079;BME280;55187;49.496;6.010;2022-10-31T06:06:15;97742.81;;;7.05;100.00
55079;BME280;55187;49.496;6.010;2022-10-31T06:08:41;97741.53;;;7.09;100.00
55079;BME280;55187;49.496;6.010;2022-10-31T06:11:13;97740.19;;;6.97;100.00
55079;BME280;55187;49.496;6.010;2022-10-31T06:13:51;97743.13;;;6.94;100.00
55079;BME280;55187;49.496;6.010;2022-10-31T06:16:23;97744.94;;;6.93;100.00
55079;BME280;55187;49.496;6.010;2022-10-31T06:18:50;97739.00;;;6.83;100.00
55079;BME280;55187;49.496;6.010;2022-10-31T06:21:17;97741.25;;;6.78;100.00
55079;BME280;55187;49.496;6.010;2022-10-31T06:23:44;97739.63;;;6.77;100.00
55079;BME280;55187;49.496;6.010;2022-10-31T06:26:26;97733.34;;;6.70;100.00
55079;BME280;55187;49.496;6.010;2022-10-31T06:28:53;97746.47;;;6.62;100.00
55079;BME280;55187;49.496;6.010;2022-10-31T06:31:39;97745.44;;;6.55;100.00
55079;BME280;55187;49.496;6.010;2022-10-31T06:34:06;97747.19;;;6.46;100.00
55079;BME280;55187;49.496;6.010;2022-10-31T06:36:32;97739.50;;;6.44;100.00
55079;BME280;55187;49.496;6.010;2022-10-31T06:39:01;97748.50;;;6.42;100.00
55079;BME280;55187;49.496;6.010;2022-10-31T06:41:28;97747.00;;;6.39;100.00
55079;BME280;55187;49.496;6.010;2022-10-31T06:43:54;97733.28;;;6.54;100.00
55079;BME280;55187;49.496;6.010;2022-10-31T06:46:41;97739.56;;;6.61;100.00
55079;BME280;55187;49.496;6.010;2022-10-31T06:49:27;97743.19;;;6.68;100.00
55079;BME280;55187;49.496;6.010;2022-10-31T06:51:56;97743.53;;;6.73;100.00
55079;BME280;55187;49.496;6.010;2022-10-31T06:54:23;97746.84;;;6.75;100.00
55079;BME280;55187;49.496;6.010;2022-10-31T06:56:49;97754.78;;;6.83;100.00
55079;BME280;55187;49.496;6.010;2022-10-31T06:59:16;97752.16;;;6.91;100.00
55079;BME280;55187;49.496;6.010;2022-10-31T07:02:02;97749.22;;;7.03;100.00
55079;BME280;55187;49.496;6.010;2022-10-31T07:04:32;97750.09;;;7.11;100.00
55079;BME280;55187;49.496;6.010;2022-10-31T07:06:58;97754.53;;;7.19;100.00
55079;BME280;55187;49.496;6.010;2022-10-31T07:09:24;97755.06;;;7.31;100.00
55079;BME280;55187;49.496;6.010;2022-10-31T07:11:52;97762.78;;;7.41;100.00
55079;BME280;55187;49.496;6.010;2022-10-31T07:14:19;97765.63;;;7.55;100.00
55079;BME280;55187;49.496;6.010;2022-10-31T07:16:49;97774.34;;;7.48;100.00
55079;BME280;55187;49.496;6.010;2022-10-31T07:19:18;97766.78;;;7.53;100.00
55079;BME280;55187;49.496;6.010;2022-10-31T07:21:45;97769.59;;;7.60;100.00
55079;BME280;55187;49.496;6.010;2022-10-31T07:24:14;97769.06;;;7.72;100.00
55079;BME280;55187;49.496;6.010;2022-10-31T07:26:50;97764.47;;;7.74;100.00
55079;BME280;55187;49.496;6.010;2022-10-31T07:29:17;97765.47;;;7.90;100.00
55079;BME280;55187;49.496;6.010;2022-10-31T07:31:45;97761.84;;;7.99;100.00
55079;BME280;55187;49.496;6.010;2022-10-31T07:34:18;97758.38;;;8.15;100.00
55079;BME280;55187;49.496;6.010;2022-10-31T07:36:57;97765.94;;;8.18;100.00
55079;BME280;55187;49.496;6.010;2022-10-31T07:39:23;97761.94;;;8.30;100.00
55079;BME280;55187;49.496;6.010;2022-10-31T07:41:50;97769.84;;;8.30;100.00
55079;BME280;55187;49.496;6.010;2022-10-31T07:44:19;97775.47;;;8.44;100.00
55079;BME280;55187;49.496;6.010;2022-10-31T07:47:05;97775.47;;;8.52;100.00
55079;BME280;55187;49.496;6.010;2022-10-31T07:49:44;97768.44;;;8.75;100.00
55079;BME280;55187;49.496;6.010;2022-10-31T07:52:23;97764.41;;;8.96;100.00
55079;BME280;55187;49.496;6.010;2022-10-31T07:55:10;97762.88;;;9.01;100.00
55079;BME280;55187;49.496;6.010;2022-10-31T07:57:37;97769.19;;;9.32;100.00
55079;BME280;55187;49.496;6.010;2022-10-31T08:00:08;97765.41;;;9.49;100.00
55079;BME280;55187;49.496;6.010;2022-10-31T08:02:41;97770.41;;;9.67;100.00
55079;BME280;55187;49.496;6.010;2022-10-31T08:05:19;97762.91;;;9.79;100.00
55079;BME280;55187;49.496;6.010;2022-10-31T08:07:58;97769.38;;;9.76;100.00
55079;BME280;55187;49.496;6.010;2022-10-31T08:10:25;97770.88;;;9.71;100.00
55079;BME280;55187;49.496;6.010;2022-10-31T08:12:59;97763.19;;;9.84;100.00
55079;BME280;55187;49.496;6.010;2022-10-31T08:15:26;97762.09;;;9.78;100.00
55079;BME280;55187;49.496;6.010;2022-10-31T08:17:53;97765.78;;;9.69;100.00
55079;BME280;55187;49.496;6.010;2022-10-31T08:20:20;97757.13;;;9.75;100.00
55079;BME280;55187;49.496;6.010;2022-10-31T08:25:20;97752.72;;;9.91;100.00
55079;BME280;55187;49.496;6.010;2022-10-31T08:27:49;97748.06;;;9.78;100.00
55079;BME280;55187;49.496;6.010;2022-10-31T08:30:19;97752.66;;;9.99;100.00
55079;BME280;55187;49.496;6.010;2022-10-31T08:33:03;97748.03;;;10.01;100.00
55079;BME280;55187;49.496;6.010;2022-10-31T08:35:50;97755.53;;;10.27;100.00
55079;BME280;55187;49.496;6.010;2022-10-31T08:38:29;97756.31;;;10.36;100.00
55079;BME280;55187;49.496;6.010;2022-10-31T08:40:55;97745.81;;;10.57;100.00
55079;BME280;55187;49.496;6.010;2022-10-31T08:43:21;97745.44;;;10.60;100.00
55079;BME280;55187;49.496;6.010;2022-10-31T08:45:49;97756.38;;;10.57;100.00
55079;BME280;55187;49.496;6.010;2022-10-31T08:48:21;97751.38;;;10.77;100.00
55079;BME280;55187;49.496;6.010;2022-10-31T08:50:48;97736.81;;;10.88;100.00
55079;BME280;55187;49.496;6.010;2022-10-31T08:53:18;97740.28;;;11.03;100.00
55079;BME280;55187;49.496;6.010;2022-10-31T08:55:50;97735.72;;;10.97;100.00
55079;BME280;55187;49.496;6.010;2022-10-31T08:58:24;97743.88;;;11.32;100.00
55079;BME280;55187;49.496;6.010;2022-10-31T09:00:54;97732.16;;;11.05;100.00
55079;BME280;55187;49.496;6.010;2022-10-31T09:03:25;97734.25;;;10.95;100.00
55079;BME280;55187;49.496;6.010;2022-10-31T09:06:00;97731.91;;;10.85;100.00
55079;BME280;55187;49.496;6.010;2022-10-31T09:08:30;97732.38;;;10.74;100.00
55079;BME280;55187;49.496;6.010;2022-10-31T09:11:03;97726.84;;;11.05;100.00
55079;BME280;55187;49.496;6.010;2022-10-31T09:13:32;97718.03;;;11.19;100.00
55079;BME280;55187;49.496;6.010;2022-10-31T09:16:19;97720.78;;;11.11;100.00
55079;BME280;55187;49.496;6.010;2022-10-31T09:18:45;97722.16;;;11.22;100.00
55079;BME280;55187;49.496;6.010;2022-10-31T09:21:15;97717.63;;;11.37;100.00
55079;BME280;55187;49.496;6.010;2022-10-31T09:23:42;97721.00;;;11.52;100.00
55079;BME280;55187;49.496;6.010;2022-10-31T09:26:09;97721.69;;;12.04;100.00
55079;BME280;55187;49.496;6.010;2022-10-31T09:28:47;97720.09;;;12.38;100.00
55079;BME280;55187;49.496;6.010;2022-10-31T09:31:16;97717.53;;;12.23;100.00
55079;BME280;55187;49.496;6.010;2022-10-31T09:33:54;97713.47;;;12.62;100.00
55079;BME280;55187;49.496;6.010;2022-10-31T09:36:32;97703.88;;;12.61;98.17
55079;BME280;55187;49.496;6.010;2022-10-31T09:39:00;97693.06;;;12.63;97.79
55079;BME280;55187;49.496;6.010;2022-10-31T09:44:18;97692.75;;;12.92;97.88
55079;BME280;55187;49.496;6.010;2022-10-31T09:46:59;97691.31;;;12.83;97.48
55079;BME280;55187;49.496;6.010;2022-10-31T09:52:24;97698.88;;;13.54;94.95
55079;BME280;55187;49.496;6.010;2022-10-31T09:55:27;97692.53;;;13.42;93.70
55079;BME280;55187;49.496;6.010;2022-10-31T09:57:52;97704.22;;;13.88;89.65
55079;BME280;55187;49.496;6.010;2022-10-31T10:00:21;97699.72;;;13.88;93.23
55079;BME280;55187;49.496;6.010;2022-10-31T10:03:10;97700.31;;;14.03;88.48
55079;BME280;55187;49.496;6.010;2022-10-31T10:05:46;97702.13;;;14.23;85.82
55079;BME280;55187;49.496;6.010;2022-10-31T10:08:31;97703.19;;;14.09;90.99
55079;BME280;55187;49.496;6.010;2022-10-31T10:11:46;97693.72;;;14.26;87.53
55079;BME280;55187;49.496;6.010;2022-10-31T10:14:40;97692.53;;;14.02;85.71
55079;BME280;55187;49.496;6.010;2022-10-31T10:25:47;97674.34;;;14.77;83.15
55079;BME280;55187;49.496;6.010;2022-10-31T10:28:26;97675.88;;;15.05;81.04
55079;BME280;55187;49.496;6.010;2022-10-31T10:31:09;97670.59;;;15.30;79.94
55079;BME280;55187;49.496;6.010;2022-10-31T10:36:44;97673.47;;;14.90;80.61
55079;BME280;55187;49.496;6.010;2022-10-31T10:39:27;97675.22;;;14.58;82.57
55079;BME280;55187;49.496;6.010;2022-10-31T10:41:57;97673.38;;;14.65;83.60
55079;BME280;55187;49.496;6.010;2022-10-31T10:44:43;97668.66;;;14.60;82.86
55079;BME280;55187;49.496;6.010;2022-10-31T10:47:25;97665.78;;;14.68;84.00
55079;BME280;55187;49.496;6.010;2022-10-31T10:50:19;97661.59;;;14.86;80.85
55079;BME280;55187;49.496;6.010;2022-10-31T10:53:01;97651.63;;;14.75;81.74
55079;BME280;55187;49.496;6.010;2022-10-31T10:55:58;97653.84;;;14.84;81.03
55079;BME280;55187;49.496;6.010;2022-10-31T10:58:30;97659.72;;;14.35;82.80
55079;BME280;55187;49.496;6.010;2022-10-31T11:00:56;97654.56;;;14.46;82.97
55079;BME280;55187;49.496;6.010;2022-10-31T11:03:22;97649.00;;;14.68;84.09
55079;BME280;55187;49.496;6.010;2022-10-31T11:05:55;97639.94;;;14.69;81.29
55079;BME280;55187;49.496;6.010;2022-10-31T11:08:35;97646.25;;;14.81;81.50
55079;BME280;55187;49.496;6.010;2022-10-31T11:11:26;97645.91;;;14.71;81.24
55079;BME280;55187;49.496;6.010;2022-10-31T11:14:03;97638.94;;;15.08;79.92
55079;BME280;55187;49.496;6.010;2022-10-31T11:16:33;97631.22;;;14.94;80.37
55079;BME280;55187;49.496;6.010;2022-10-31T11:21:46;97620.56;;;14.94;79.60
55079;BME280;55187;49.496;6.010;2022-10-31T11:24:23;97610.59;;;14.82;80.86
55079;BME280;55187;49.496;6.010;2022-10-31T11:27:07;97613.50;;;14.74;80.95
55079;BME280;55187;49.496;6.010;2022-10-31T11:29:37;97595.09;;;14.66;81.77
55079;BME280;55187;49.496;6.010;2022-10-31T11:32:04;97598.63;;;14.98;80.23
55079;BME280;55187;49.496;6.010;2022-10-31T11:34:33;97598.59;;;14.66;81.49
55079;BME280;55187;49.496;6.010;2022-10-31T11:37:17;97586.47;;;14.71;82.12
55079;BME280;55187;49.496;6.010;2022-10-31T11:39:46;97586.22;;;14.79;80.56
55079;BME280;55187;49.496;6.010;2022-10-31T11:42:21;97578.78;;;14.87;79.81
55079;BME280;55187;49.496;6.010;2022-10-31T11:44:49;97575.34;;;14.80;81.03
55079;BME280;55187;49.496;6.010;2022-10-31T11:47:18;97576.38;;;14.79;81.58
55079;BME280;55187;49.496;6.010;2022-10-31T11:49:47;97564.25;;;15.15;79.97
55079;BME280;55187;49.496;6.010;2022-10-31T11:52:28;97565.16;;;15.27;78.22
55079;BME280;55187;49.496;6.010;2022-10-31T11:55:29;97554.63;;;14.82;80.29
55079;BME280;55187;49.496;6.010;2022-10-31T11:57:56;97556.19;;;15.22;78.89
55079;BME280;55187;49.496;6.010;2022-10-31T12:00:36;97544.00;;;15.07;78.95
55079;BME280;55187;49.496;6.010;2022-10-31T12:06:19;97542.66;;;14.98;79.94
55079;BME280;55187;49.496;6.010;2022-10-31T12:08:47;97535.25;;;15.00;80.35
55079;BME280;55187;49.496;6.010;2022-10-31T12:11:37;97534.13;;;15.15;79.16
55079;BME280;55187;49.496;6.010;2022-10-31T12:17:14;97526.22;;;15.26;79.75
55079;BME280;55187;49.496;6.010;2022-10-31T12:25:44;97514.06;;;14.80;81.52
55079;BME280;55187;49.496;6.010;2022-10-31T12:28:39;97518.06;;;15.21;80.24
55079;BME280;55187;49.496;6.010;2022-10-31T12:34:18;97495.22;;;15.50;78.75
55079;BME280;55187;49.496;6.010;2022-10-31T12:37:07;97485.56;;;15.93;77.16
55079;BME280;55187;49.496;6.010;2022-10-31T12:39:48;97491.50;;;15.95;77.54
55079;BME280;55187;49.496;6.010;2022-10-31T12:42:38;97483.50;;;16.25;76.47
55079;BME280;55187;49.496;6.010;2022-10-31T12:45:30;97478.69;;;16.34;75.25
55079;BME280;55187;49.496;6.010;2022-10-31T12:48:15;97478.97;;;16.26;75.39
55079;BME280;55187;49.496;6.010;2022-10-31T12:56:36;97451.00;;;16.28;73.89
55079;BME280;55187;49.496;6.010;2022-10-31T12:59:28;97446.69;;;16.15;75.30
55079;BME280;55187;49.496;6.010;2022-10-31T13:04:47;97438.38;;;15.31;77.68
55079;BME280;55187;49.496;6.010;2022-10-31T13:07:21;97441.72;;;15.45;77.52
55079;BME280;55187;49.496;6.010;2022-10-31T13:10:04;97428.16;;;15.28;78.28
55079;BME280;55187;49.496;6.010;2022-10-31T13:12:33;97423.00;;;15.52;77.58
55079;BME280;55187;49.496;6.010;2022-10-31T13:15:12;97412.47;;;15.57;77.53
55079;BME280;55187;49.496;6.010;2022-10-31T13:17:57;97418.06;;;16.04;75.77
55079;BME280;55187;49.496;6.010;2022-10-31T13:20:45;97417.66;;;15.89;75.87
55079;BME280;55187;49.496;6.010;2022-10-31T13:23:34;97405.28;;;16.25;74.83
55079;BME280;55187;49.496;6.010;2022-10-31T13:29:17;97405.91;;;16.08;74.65
55079;BME280;55187;49.496;6.010;2022-10-31T13:31:44;97402.03;;;15.74;75.18
55079;BME280;55187;49.496;6.010;2022-10-31T13:34:39;97394.47;;;15.71;75.73
55079;BME280;55187;49.496;6.010;2022-10-31T13:37:26;97393.50;;;15.65;75.30
55079;BME280;55187;49.496;6.010;2022-10-31T13:43:09;97380.63;;;15.62;74.68
55079;BME280;55187;49.496;6.010;2022-10-31T13:45:52;97372.63;;;15.62;74.58
55079;BME280;55187;49.496;6.010;2022-10-31T13:48:36;97377.56;;;15.59;75.02
55079;BME280;55187;49.496;6.010;2022-10-31T13:51:10;97384.16;;;15.56;76.18
55079;BME280;55187;49.496;6.010;2022-10-31T13:53:58;97378.97;;;15.61;74.84
55079;BME280;55187;49.496;6.010;2022-10-31T13:56:31;97374.69;;;15.60;75.69
55079;BME280;55187;49.496;6.010;2022-10-31T13:59:21;97378.31;;;15.47;76.84
55079;BME280;55187;49.496;6.010;2022-10-31T14:01:55;97371.59;;;15.45;77.06
55079;BME280;55187;49.496;6.010;2022-10-31T14:04:25;97363.72;;;15.31;77.47
55079;BME280;55187;49.496;6.010;2022-10-31T14:07:05;97363.59;;;15.08;78.69
55079;BME280;55187;49.496;6.010;2022-10-31T14:09:36;97363.66;;;15.01;78.78
55079;BME280;55187;49.496;6.010;2022-10-31T14:12:13;97355.28;;;14.79;80.15
55079;BME280;55187;49.496;6.010;2022-10-31T14:14:50;97340.16;;;14.73;79.38
55079;BME280;55187;49.496;6.010;2022-10-31T14:17:21;97341.28;;;14.84;79.16
55079;BME280;55187;49.496;6.010;2022-10-31T14:22:21;97341.56;;;14.76;80.58
55079;BME280;55187;49.496;6.010;2022-10-31T14:24:49;97334.69;;;14.68;78.88
55079;BME280;55187;49.496;6.010;2022-10-31T14:27:42;97337.94;;;14.70;77.68
55079;BME280;55187;49.496;6.010;2022-10-31T14:30:16;97335.28;;;14.70;76.89
55079;BME280;55187;49.496;6.010;2022-10-31T14:32:43;97336.19;;;14.57;80.83
55079;BME280;55187;49.496;6.010;2022-10-31T14:35:15;97336.44;;;14.49;78.55
55079;BME280;55187;49.496;6.010;2022-10-31T14:40:45;97333.34;;;14.77;76.81
55079;BME280;55187;49.496;6.010;2022-10-31T14:43:28;97339.66;;;14.58;76.99
55079;BME280;55187;49.496;6.010;2022-10-31T14:46:14;97324.44;;;14.65;77.12
55079;BME280;55187;49.496;6.010;2022-10-31T14:49:10;97336.25;;;14.19;82.56
55079;BME280;55187;49.496;6.010;2022-10-31T14:51:42;97332.69;;;14.32;79.89